AFL1110 ULLI-ULMM
Flight info
| Callsign | AFL1110 |
|---|---|
| Flight time | 1h 29m |
| Altitude | 36000 |
| Route | RELNI1C RELNI T693 UMDEL P190 PELOR PELOR1L |
| Aircraft | A320/M-SDE3FGHIRWY/LB1 |
Departure
| Time | 2026-05-09 18:18 |
|---|---|
| Airport | Pulkovo Airport (ULLI) |
Arrival
| Time | 2026-05-09 19:48 |
|---|---|
| Airport | Emperor Nicholas II Murmansk Airport (ULMM) |
| Time | Latitude | Longitude | Altitude | Speed | Heading |
|---|---|---|---|---|---|
| 2026-05-09 17:55 | 59.80268 | 30.26563 | 86 ft | 0 kts | 287° |
| 2026-05-09 18:12 | 59.80283 | 30.26476 | 83 ft | 13 kts | 299° |
| 2026-05-09 18:13 | 59.80359 | 30.26453 | 83 ft | 11 kts | 8° |
| 2026-05-09 18:13 | 59.80423 | 30.26501 | 84 ft | 10 kts | 38° |
| 2026-05-09 18:13 | 59.80480 | 30.26572 | 82 ft | 10 kts | 18° |
| 2026-05-09 18:13 | 59.80539 | 30.26606 | 86 ft | 0 kts | 17° |
| 2026-05-09 18:17 | 59.80567 | 30.26623 | 83 ft | 15 kts | 17° |
| 2026-05-09 18:17 | 59.80642 | 30.26745 | 80 ft | 15 kts | 91° |
| 2026-05-09 18:17 | 59.80613 | 30.26955 | 84 ft | 19 kts | 107° |
| 2026-05-09 18:17 | 59.80514 | 30.27630 | 84 ft | 88 kts | 107° |
| 2026-05-09 18:18 | 59.80278 | 30.29216 | 77 ft | 148 kts | 104° |
| 2026-05-09 18:18 | 59.79976 | 30.31383 | 473 ft | 163 kts | 103° |
| 2026-05-09 18:18 | 59.79692 | 30.33550 | 1260 ft | 162 kts | 102° |
| 2026-05-09 18:18 | 59.79425 | 30.35669 | 2060 ft | 160 kts | 103° |
| 2026-05-09 18:19 | 59.79120 | 30.37868 | 2586 ft | 169 kts | 106° |
| 2026-05-09 18:19 | 59.78427 | 30.42624 | 3591 ft | 191 kts | 108° |
| 2026-05-09 18:19 | 59.78023 | 30.45226 | 4067 ft | 204 kts | 109° |
| 2026-05-09 18:20 | 59.77566 | 30.48061 | 4421 ft | 228 kts | 109° |
| 2026-05-09 18:20 | 59.77049 | 30.51196 | 4890 ft | 249 kts | 109° |
| 2026-05-09 18:20 | 59.76721 | 30.54591 | 5753 ft | 253 kts | 90° |
| 2026-05-09 18:20 | 59.77071 | 30.58050 | 6603 ft | 262 kts | 71° |
| 2026-05-09 18:21 | 59.77961 | 30.61288 | 7304 ft | 274 kts | 55° |
| 2026-05-09 18:21 | 59.79262 | 30.64182 | 7892 ft | 289 kts | 49° |
| 2026-05-09 18:21 | 59.80630 | 30.67144 | 8729 ft | 290 kts | 50° |
| 2026-05-09 18:21 | 59.81947 | 30.70103 | 9851 ft | 283 kts | 52° |
| 2026-05-09 18:22 | 59.83163 | 30.73117 | 10652 ft | 287 kts | 53° |
| 2026-05-09 18:22 | 59.84417 | 30.76363 | 11072 ft | 304 kts | 53° |
| 2026-05-09 18:22 | 59.85743 | 30.79782 | 11458 ft | 321 kts | 53° |
| 2026-05-09 18:22 | 59.87159 | 30.83365 | 11821 ft | 337 kts | 52° |
| 2026-05-09 18:23 | 59.88649 | 30.87054 | 12348 ft | 347 kts | 51° |
| 2026-05-09 18:23 | 59.90188 | 30.90802 | 13039 ft | 351 kts | 51° |
| 2026-05-09 18:23 | 59.91753 | 30.94582 | 13725 ft | 356 kts | 50° |
| 2026-05-09 18:23 | 59.93341 | 30.98410 | 14357 ft | 361 kts | 50° |
| 2026-05-09 18:24 | 59.94946 | 31.02286 | 14974 ft | 364 kts | 50° |
| 2026-05-09 18:24 | 59.96561 | 31.06195 | 15624 ft | 366 kts | 50° |
| 2026-05-09 18:24 | 59.98186 | 31.10137 | 16274 ft | 369 kts | 50° |
| 2026-05-09 18:25 | 60.01432 | 31.18058 | 17522 ft | 374 kts | 50° |
| 2026-05-09 18:25 | 60.03080 | 31.22097 | 18144 ft | 377 kts | 51° |
| 2026-05-09 18:25 | 60.04742 | 31.26177 | 18742 ft | 380 kts | 50° |
| 2026-05-09 18:25 | 60.06419 | 31.30298 | 19244 ft | 383 kts | 50° |
| 2026-05-09 18:26 | 60.08105 | 31.34452 | 19734 ft | 387 kts | 50° |
| 2026-05-09 18:26 | 60.09814 | 31.38669 | 20217 ft | 391 kts | 50° |
| 2026-05-09 18:26 | 60.11540 | 31.42928 | 20705 ft | 395 kts | 50° |
| 2026-05-09 18:26 | 60.13345 | 31.47113 | 21221 ft | 398 kts | 44° |
| 2026-05-09 18:27 | 60.15469 | 31.50697 | 21709 ft | 400 kts | 33° |
| 2026-05-09 18:27 | 60.17035 | 31.52642 | 22032 ft | 401 kts | 26° |
| 2026-05-09 18:27 | 60.20427 | 31.55669 | 22650 ft | 405 kts | 21° |
| 2026-05-09 18:27 | 60.23040 | 31.57889 | 23123 ft | 409 kts | 21° |
| 2026-05-09 18:28 | 60.25661 | 31.60139 | 23587 ft | 411 kts | 21° |
| 2026-05-09 18:28 | 60.28303 | 31.62416 | 24022 ft | 414 kts | 21° |
| 2026-05-09 18:28 | 60.30958 | 31.64709 | 24394 ft | 417 kts | 21° |
| 2026-05-09 18:28 | 60.33630 | 31.67018 | 24763 ft | 419 kts | 21° |
| 2026-05-09 18:29 | 60.36318 | 31.69339 | 25139 ft | 421 kts | 21° |
| 2026-05-09 18:29 | 60.39013 | 31.71671 | 25497 ft | 423 kts | 21° |
| 2026-05-09 18:29 | 60.41725 | 31.74030 | 25846 ft | 425 kts | 20° |
| 2026-05-09 18:29 | 60.44411 | 31.76369 | 26192 ft | 427 kts | 20° |
| 2026-05-09 18:30 | 60.47143 | 31.78748 | 26544 ft | 429 kts | 20° |
| 2026-05-09 18:30 | 60.49887 | 31.81139 | 26872 ft | 431 kts | 20° |
| 2026-05-09 18:30 | 60.52652 | 31.83555 | 27190 ft | 433 kts | 20° |
| 2026-05-09 18:30 | 60.55426 | 31.85988 | 27506 ft | 435 kts | 20° |
| 2026-05-09 18:31 | 60.58209 | 31.88433 | 27817 ft | 437 kts | 20° |
| 2026-05-09 18:31 | 60.61014 | 31.90901 | 28122 ft | 440 kts | 20° |
| 2026-05-09 18:31 | 60.63825 | 31.93377 | 28416 ft | 442 kts | 20° |
| 2026-05-09 18:31 | 60.66650 | 31.95867 | 28708 ft | 444 kts | 20° |
| 2026-05-09 18:32 | 60.69530 | 31.98089 | 28992 ft | 442 kts | 12° |
| 2026-05-09 18:32 | 60.72526 | 31.99438 | 29261 ft | 439 kts | 4° |
| 2026-05-09 18:32 | 60.75563 | 31.99895 | 29522 ft | 438 kts | 358° |
| 2026-05-09 18:32 | 60.78577 | 32.00099 | 29785 ft | 440 kts | 358° |
| 2026-05-09 18:33 | 60.81641 | 32.00324 | 30031 ft | 441 kts | 358° |
| 2026-05-09 18:33 | 60.84719 | 32.00565 | 30273 ft | 443 kts | 358° |
| 2026-05-09 18:33 | 60.87801 | 32.00815 | 30502 ft | 445 kts | 358° |
| 2026-05-09 18:33 | 60.90902 | 32.01067 | 30681 ft | 446 kts | 358° |
| 2026-05-09 18:34 | 60.93997 | 32.01320 | 30939 ft | 445 kts | 358° |
| 2026-05-09 18:34 | 60.97089 | 32.01564 | 31223 ft | 444 kts | 358° |
| 2026-05-09 18:34 | 61.00173 | 32.01709 | 31490 ft | 442 kts | 356° |
| 2026-05-09 18:34 | 61.03241 | 32.01715 | 31763 ft | 441 kts | 355° |
| 2026-05-09 18:35 | 61.06305 | 32.01641 | 32035 ft | 440 kts | 354° |
| 2026-05-09 18:35 | 61.09366 | 32.01540 | 32305 ft | 439 kts | 354° |
| 2026-05-09 18:35 | 61.12421 | 32.01445 | 32574 ft | 438 kts | 354° |
| 2026-05-09 18:35 | 61.15466 | 32.01370 | 32852 ft | 438 kts | 354° |
| 2026-05-09 18:36 | 61.18508 | 32.01319 | 33113 ft | 437 kts | 354° |
| 2026-05-09 18:36 | 61.21548 | 32.01294 | 33383 ft | 437 kts | 355° |
| 2026-05-09 18:36 | 61.24544 | 32.01284 | 33644 ft | 436 kts | 355° |
| 2026-05-09 18:36 | 61.27575 | 32.01276 | 33913 ft | 435 kts | 354° |
| 2026-05-09 18:37 | 61.30600 | 32.01261 | 34188 ft | 434 kts | 354° |
| 2026-05-09 18:37 | 61.33621 | 32.01232 | 34443 ft | 433 kts | 354° |
| 2026-05-09 18:37 | 61.36631 | 32.01189 | 34672 ft | 433 kts | 354° |
| 2026-05-09 18:37 | 61.39642 | 32.01141 | 34874 ft | 433 kts | 354° |
| 2026-05-09 18:38 | 61.42656 | 32.01093 | 35082 ft | 433 kts | 354° |
| 2026-05-09 18:38 | 61.45666 | 32.01053 | 35267 ft | 433 kts | 354° |
| 2026-05-09 18:38 | 61.48681 | 32.01020 | 35447 ft | 433 kts | 354° |
| 2026-05-09 18:40 | 61.69774 | 32.00765 | 36380 ft | 435 kts | 355° |
| 2026-05-09 18:40 | 61.72802 | 32.00733 | 36378 ft | 435 kts | 355° |
| 2026-05-09 18:41 | 61.78856 | 32.00678 | 36377 ft | 435 kts | 355° |
| 2026-05-09 18:41 | 61.84916 | 32.00617 | 36378 ft | 435 kts | 355° |
| 2026-05-09 18:42 | 61.90963 | 32.00508 | 36382 ft | 435 kts | 354° |
| 2026-05-09 18:42 | 61.97010 | 32.00327 | 36389 ft | 434 kts | 354° |
| 2026-05-09 18:43 | 62.03050 | 32.00161 | 36393 ft | 434 kts | 354° |
| 2026-05-09 18:43 | 62.09087 | 32.00024 | 36390 ft | 434 kts | 355° |
| 2026-05-09 18:44 | 62.15121 | 31.99873 | 36394 ft | 434 kts | 355° |
| 2026-05-09 18:44 | 62.21115 | 31.99728 | 36391 ft | 433 kts | 355° |
| 2026-05-09 18:45 | 62.27146 | 31.99589 | 36391 ft | 433 kts | 355° |
| 2026-05-09 18:45 | 62.33173 | 31.99432 | 36390 ft | 433 kts | 355° |
| 2026-05-09 18:46 | 62.39201 | 31.99255 | 36388 ft | 433 kts | 355° |
| 2026-05-09 18:46 | 62.45222 | 31.99066 | 36388 ft | 433 kts | 355° |
| 2026-05-09 18:47 | 62.51207 | 31.98894 | 36388 ft | 433 kts | 355° |
| 2026-05-09 18:47 | 62.57225 | 31.98713 | 36389 ft | 433 kts | 355° |
| 2026-05-09 18:48 | 62.63247 | 31.98534 | 36390 ft | 432 kts | 355° |
| 2026-05-09 18:48 | 62.69259 | 31.98368 | 36391 ft | 432 kts | 355° |
| 2026-05-09 18:49 | 62.75276 | 31.98184 | 36391 ft | 432 kts | 355° |
| 2026-05-09 18:49 | 62.81243 | 31.97909 | 36390 ft | 432 kts | 354° |
| 2026-05-09 18:50 | 62.87241 | 31.97595 | 36389 ft | 431 kts | 354° |
| 2026-05-09 18:50 | 62.93241 | 31.97298 | 36386 ft | 431 kts | 354° |
| 2026-05-09 18:51 | 62.99235 | 31.97021 | 36385 ft | 431 kts | 354° |
| 2026-05-09 18:51 | 63.05226 | 31.96753 | 36386 ft | 430 kts | 354° |
| 2026-05-09 18:52 | 63.11214 | 31.96473 | 36382 ft | 430 kts | 354° |
| 2026-05-09 18:52 | 63.17156 | 31.96195 | 36385 ft | 430 kts | 354° |
| 2026-05-09 18:53 | 63.23132 | 31.95910 | 36382 ft | 430 kts | 354° |
| 2026-05-09 18:53 | 63.29104 | 31.95631 | 36382 ft | 429 kts | 354° |
| 2026-05-09 18:54 | 63.35078 | 31.95432 | 36381 ft | 430 kts | 356° |
| 2026-05-09 18:54 | 63.40044 | 31.95604 | 36377 ft | 430 kts | 357° |
| 2026-05-09 18:55 | 63.47000 | 31.96069 | 36376 ft | 430 kts | 357° |
| 2026-05-09 18:55 | 63.52975 | 31.96460 | 36378 ft | 429 kts | 357° |
| 2026-05-09 18:56 | 63.58936 | 31.96771 | 36377 ft | 429 kts | 357° |
| 2026-05-09 18:56 | 63.63897 | 31.97005 | 36376 ft | 429 kts | 356° |
| 2026-05-09 18:57 | 63.69862 | 31.97284 | 36372 ft | 429 kts | 357° |
| 2026-05-09 18:57 | 63.74812 | 31.97530 | 36374 ft | 428 kts | 356° |
| 2026-05-09 18:58 | 63.81783 | 31.97892 | 36369 ft | 428 kts | 357° |
| 2026-05-09 18:58 | 63.87703 | 31.98202 | 36373 ft | 428 kts | 357° |
| 2026-05-09 18:59 | 63.93653 | 31.98518 | 36372 ft | 428 kts | 357° |
| 2026-05-09 18:59 | 63.99606 | 31.98820 | 36367 ft | 428 kts | 356° |
| 2026-05-09 19:00 | 64.05555 | 31.99115 | 36365 ft | 428 kts | 356° |
| 2026-05-09 19:00 | 64.14439 | 31.99584 | 36361 ft | 427 kts | 356° |
| 2026-05-09 19:01 | 64.20380 | 31.99883 | 36366 ft | 427 kts | 356° |
| 2026-05-09 19:01 | 64.26324 | 32.00202 | 36359 ft | 427 kts | 357° |
| 2026-05-09 19:02 | 64.32262 | 32.00516 | 36360 ft | 427 kts | 356° |
| 2026-05-09 19:02 | 64.38206 | 32.00810 | 36355 ft | 427 kts | 356° |
| 2026-05-09 19:03 | 64.44140 | 32.01135 | 36353 ft | 427 kts | 357° |
| 2026-05-09 19:03 | 64.50035 | 32.01457 | 36349 ft | 427 kts | 356° |
| 2026-05-09 19:04 | 64.55969 | 32.01784 | 36339 ft | 426 kts | 357° |
| 2026-05-09 19:04 | 64.61899 | 32.02115 | 36343 ft | 426 kts | 356° |
| 2026-05-09 19:05 | 64.67832 | 32.02438 | 36352 ft | 426 kts | 356° |
| 2026-05-09 19:05 | 64.73762 | 32.02754 | 36344 ft | 426 kts | 356° |
| 2026-05-09 19:06 | 64.79687 | 32.03058 | 36344 ft | 426 kts | 356° |
| 2026-05-09 19:06 | 64.85613 | 32.03386 | 36339 ft | 426 kts | 357° |
| 2026-05-09 19:07 | 64.91537 | 32.03734 | 36331 ft | 426 kts | 357° |
| 2026-05-09 19:07 | 64.97426 | 32.04070 | 36339 ft | 426 kts | 356° |
| 2026-05-09 19:08 | 65.03347 | 32.04387 | 36327 ft | 426 kts | 356° |
| 2026-05-09 19:08 | 65.09265 | 32.04717 | 36329 ft | 425 kts | 357° |
| 2026-05-09 19:09 | 65.15179 | 32.05061 | 36330 ft | 425 kts | 356° |
| 2026-05-09 19:09 | 65.21101 | 32.05396 | 36330 ft | 425 kts | 356° |
| 2026-05-09 19:10 | 65.26973 | 32.05733 | 36329 ft | 425 kts | 356° |
| 2026-05-09 19:10 | 65.32890 | 32.06074 | 36330 ft | 425 kts | 356° |
| 2026-05-09 19:11 | 65.38813 | 32.06408 | 36324 ft | 425 kts | 356° |
| 2026-05-09 19:11 | 65.44729 | 32.06734 | 36324 ft | 425 kts | 356° |
| 2026-05-09 19:12 | 65.50651 | 32.07090 | 36318 ft | 425 kts | 356° |
| 2026-05-09 19:12 | 65.56560 | 32.07449 | 36320 ft | 425 kts | 356° |
| 2026-05-09 19:13 | 65.62439 | 32.07734 | 36315 ft | 425 kts | 356° |
| 2026-05-09 19:13 | 65.68354 | 32.07977 | 36316 ft | 425 kts | 356° |
| 2026-05-09 19:14 | 65.74266 | 32.08245 | 36314 ft | 425 kts | 356° |
| 2026-05-09 19:14 | 65.80183 | 32.08526 | 36313 ft | 425 kts | 356° |
| 2026-05-09 19:15 | 65.86099 | 32.08811 | 36312 ft | 425 kts | 356° |
| 2026-05-09 19:15 | 65.92015 | 32.09103 | 36310 ft | 425 kts | 356° |
| 2026-05-09 19:16 | 65.97935 | 32.09378 | 36309 ft | 425 kts | 356° |
| 2026-05-09 19:16 | 66.03814 | 32.09657 | 36310 ft | 426 kts | 356° |
| 2026-05-09 19:17 | 66.09735 | 32.09963 | 36306 ft | 426 kts | 356° |
| 2026-05-09 19:17 | 66.15663 | 32.10244 | 36306 ft | 426 kts | 356° |
| 2026-05-09 19:18 | 66.21588 | 32.10538 | 36310 ft | 426 kts | 356° |
| 2026-05-09 19:18 | 66.27520 | 32.10842 | 36307 ft | 426 kts | 356° |
| 2026-05-09 19:19 | 66.33413 | 32.11106 | 36307 ft | 426 kts | 356° |
| 2026-05-09 19:19 | 66.39345 | 32.11380 | 36308 ft | 426 kts | 356° |
| 2026-05-09 19:20 | 66.45262 | 32.11096 | 36306 ft | 424 kts | 353° |
| 2026-05-09 19:20 | 66.51142 | 32.10111 | 36301 ft | 424 kts | 352° |
| 2026-05-09 19:21 | 66.57031 | 32.09079 | 36305 ft | 424 kts | 352° |
| 2026-05-09 19:21 | 66.62924 | 32.08206 | 36303 ft | 424 kts | 352° |
| 2026-05-09 19:22 | 66.68825 | 32.07409 | 36306 ft | 425 kts | 353° |
| 2026-05-09 19:22 | 66.74690 | 32.06616 | 36306 ft | 425 kts | 353° |
| 2026-05-09 19:23 | 66.80593 | 32.05799 | 36303 ft | 425 kts | 352° |
| 2026-05-09 19:23 | 66.86496 | 32.04960 | 36310 ft | 425 kts | 352° |
| 2026-05-09 19:24 | 66.92402 | 32.04102 | 36308 ft | 425 kts | 352° |
| 2026-05-09 19:24 | 66.98279 | 32.03253 | 36312 ft | 426 kts | 352° |
| 2026-05-09 19:25 | 67.04192 | 32.02390 | 36308 ft | 426 kts | 352° |
| 2026-05-09 19:25 | 67.10108 | 32.01533 | 36307 ft | 426 kts | 352° |
| 2026-05-09 19:26 | 67.16029 | 32.00678 | 36304 ft | 426 kts | 352° |
| 2026-05-09 19:26 | 67.21949 | 31.99809 | 36304 ft | 426 kts | 352° |
| 2026-05-09 19:27 | 67.27878 | 31.98945 | 36305 ft | 426 kts | 352° |
| 2026-05-09 19:27 | 67.33798 | 31.98058 | 36304 ft | 427 kts | 352° |
| 2026-05-09 19:28 | 67.39731 | 31.97164 | 36273 ft | 427 kts | 352° |
| 2026-05-09 19:28 | 67.42674 | 31.96728 | 35409 ft | 432 kts | 352° |
| 2026-05-09 19:28 | 67.45684 | 31.96274 | 34413 ft | 436 kts | 352° |
| 2026-05-09 19:29 | 67.48712 | 31.95823 | 33348 ft | 436 kts | 352° |
| 2026-05-09 19:29 | 67.51735 | 31.95376 | 32234 ft | 436 kts | 352° |
| 2026-05-09 19:29 | 67.54738 | 31.94937 | 31361 ft | 424 kts | 352° |
| 2026-05-09 19:29 | 67.57634 | 31.94516 | 30861 ft | 412 kts | 352° |
| 2026-05-09 19:30 | 67.60481 | 31.94094 | 30245 ft | 407 kts | 352° |
| 2026-05-09 19:30 | 67.63289 | 31.93676 | 29608 ft | 401 kts | 352° |
| 2026-05-09 19:30 | 67.66049 | 31.93259 | 29047 ft | 394 kts | 352° |
| 2026-05-09 19:30 | 67.68766 | 31.92834 | 28485 ft | 388 kts | 352° |
| 2026-05-09 19:31 | 67.71441 | 31.92406 | 27936 ft | 383 kts | 352° |
| 2026-05-09 19:31 | 67.74086 | 31.91992 | 27395 ft | 378 kts | 352° |
| 2026-05-09 19:31 | 67.76701 | 31.91596 | 26857 ft | 374 kts | 352° |
| 2026-05-09 19:31 | 67.79285 | 31.91202 | 26334 ft | 370 kts | 352° |
| 2026-05-09 19:32 | 67.81843 | 31.90801 | 25806 ft | 367 kts | 352° |
| 2026-05-09 19:32 | 67.84382 | 31.90405 | 25300 ft | 364 kts | 352° |
| 2026-05-09 19:32 | 67.86865 | 31.90022 | 24802 ft | 361 kts | 352° |
| 2026-05-09 19:32 | 67.89365 | 31.89634 | 24315 ft | 358 kts | 352° |
| 2026-05-09 19:33 | 67.91842 | 31.89240 | 23832 ft | 357 kts | 353° |
| 2026-05-09 19:33 | 67.94418 | 31.88822 | 23301 ft | 385 kts | 353° |
| 2026-05-09 19:33 | 67.97182 | 31.88363 | 22797 ft | 412 kts | 353° |
| 2026-05-09 19:33 | 68.00120 | 31.87882 | 22279 ft | 432 kts | 353° |
| 2026-05-09 19:34 | 68.03118 | 31.87414 | 21755 ft | 431 kts | 353° |
| 2026-05-09 19:34 | 68.06102 | 31.86966 | 21235 ft | 428 kts | 354° |
| 2026-05-09 19:34 | 68.09066 | 31.86521 | 20721 ft | 426 kts | 354° |
| 2026-05-09 19:34 | 68.12014 | 31.86070 | 20191 ft | 423 kts | 354° |
| 2026-05-09 19:35 | 68.14971 | 31.85604 | 19653 ft | 427 kts | 353° |
| 2026-05-09 19:35 | 68.17888 | 31.85129 | 19107 ft | 424 kts | 353° |
| 2026-05-09 19:35 | 68.20863 | 31.84648 | 18542 ft | 422 kts | 354° |
| 2026-05-09 19:35 | 68.23745 | 31.84188 | 17940 ft | 419 kts | 354° |
| 2026-05-09 19:36 | 68.26644 | 31.83721 | 17380 ft | 416 kts | 354° |
| 2026-05-09 19:36 | 68.29546 | 31.83255 | 16814 ft | 419 kts | 354° |
| 2026-05-09 19:36 | 68.32431 | 31.82792 | 16423 ft | 408 kts | 354° |
| 2026-05-09 19:36 | 68.35249 | 31.82344 | 15712 ft | 404 kts | 354° |
| 2026-05-09 19:37 | 68.38025 | 31.81897 | 15223 ft | 395 kts | 353° |
| 2026-05-09 19:37 | 68.40748 | 31.81454 | 14631 ft | 390 kts | 353° |
| 2026-05-09 19:37 | 68.43436 | 31.81013 | 14090 ft | 386 kts | 353° |
| 2026-05-09 19:37 | 68.46109 | 31.80577 | 13515 ft | 383 kts | 353° |
| 2026-05-09 19:38 | 68.48764 | 31.80142 | 12976 ft | 379 kts | 353° |
| 2026-05-09 19:38 | 68.51377 | 31.79713 | 12434 ft | 374 kts | 353° |
| 2026-05-09 19:38 | 68.53913 | 31.79298 | 11920 ft | 366 kts | 353° |
| 2026-05-09 19:38 | 68.56426 | 31.78881 | 11426 ft | 359 kts | 353° |
| 2026-05-09 19:39 | 68.58893 | 31.78515 | 10915 ft | 353 kts | 356° |
| 2026-05-09 19:39 | 68.61321 | 31.79377 | 10551 ft | 355 kts | 13° |
| 2026-05-09 19:39 | 68.63608 | 31.82000 | 10464 ft | 358 kts | 28° |
| 2026-05-09 19:39 | 68.65634 | 31.85804 | 10181 ft | 349 kts | 33° |
| 2026-05-09 19:40 | 68.67588 | 31.89668 | 9984 ft | 349 kts | 33° |
| 2026-05-09 19:40 | 68.69552 | 31.93588 | 9327 ft | 347 kts | 33° |
| 2026-05-09 19:40 | 68.71485 | 31.97459 | 8865 ft | 341 kts | 34° |
| 2026-05-09 19:40 | 68.73367 | 32.01235 | 8590 ft | 329 kts | 34° |
| 2026-05-09 19:41 | 68.75198 | 32.04916 | 8194 ft | 322 kts | 34° |
| 2026-05-09 19:41 | 68.76966 | 32.08482 | 7794 ft | 317 kts | 34° |
| 2026-05-09 19:41 | 68.78717 | 32.12015 | 7545 ft | 306 kts | 34° |
| 2026-05-09 19:41 | 68.80404 | 32.15419 | 7344 ft | 295 kts | 34° |
| 2026-05-09 19:42 | 68.82052 | 32.18751 | 6955 ft | 292 kts | 34° |
| 2026-05-09 19:42 | 68.83690 | 32.22059 | 6498 ft | 291 kts | 35° |
| 2026-05-09 19:42 | 68.85317 | 32.25377 | 5961 ft | 291 kts | 38° |
| 2026-05-09 19:42 | 68.86700 | 32.29459 | 5503 ft | 284 kts | 56° |
| 2026-05-09 19:43 | 68.87751 | 32.33823 | 5208 ft | 265 kts | 57° |
| 2026-05-09 19:43 | 68.88781 | 32.38054 | 4457 ft | 265 kts | 57° |
| 2026-05-09 19:43 | 68.89819 | 32.42279 | 3722 ft | 265 kts | 57° |
| 2026-05-09 19:43 | 68.90721 | 32.46572 | 3333 ft | 246 kts | 77° |
| 2026-05-09 19:44 | 68.90677 | 32.50888 | 3172 ft | 213 kts | 118° |
| 2026-05-09 19:44 | 68.89740 | 32.53690 | 2884 ft | 191 kts | 153° |
| 2026-05-09 19:44 | 68.88664 | 32.55548 | 2629 ft | 178 kts | 150° |
| 2026-05-09 19:44 | 68.87678 | 32.57419 | 2382 ft | 163 kts | 149° |
| 2026-05-09 19:45 | 68.86796 | 32.59084 | 2178 ft | 146 kts | 150° |
| 2026-05-09 19:45 | 68.85999 | 32.60580 | 1993 ft | 134 kts | 150° |
| 2026-05-09 19:45 | 68.85227 | 32.62028 | 1803 ft | 134 kts | 149° |
| 2026-05-09 19:45 | 68.84462 | 32.63494 | 1586 ft | 133 kts | 149° |
| 2026-05-09 19:46 | 68.83693 | 32.64932 | 1447 ft | 133 kts | 149° |
| 2026-05-09 19:46 | 68.82923 | 32.66359 | 1222 ft | 133 kts | 147° |
| 2026-05-09 19:46 | 68.82145 | 32.67757 | 1016 ft | 134 kts | 147° |
| 2026-05-09 19:46 | 68.81377 | 32.69199 | 796 ft | 133 kts | 146° |
| 2026-05-09 19:47 | 68.80606 | 32.70609 | 623 ft | 133 kts | 146° |
| 2026-05-09 19:47 | 68.79853 | 32.72024 | 465 ft | 132 kts | 144° |
| 2026-05-09 19:47 | 68.79090 | 32.73439 | 305 ft | 132 kts | 146° |
| 2026-05-09 19:47 | 68.78375 | 32.74762 | 256 ft | 103 kts | 145° |
| 2026-05-09 19:48 | 68.78001 | 32.75468 | 253 ft | 29 kts | 146° |
| 2026-05-09 19:48 | 68.77929 | 32.75633 | 254 ft | 9 kts | 149° |
| 2026-05-09 19:48 | 68.77913 | 32.75587 | 254 ft | 1 kts | 296° |
| 2026-05-09 19:48 | 68.77932 | 32.75544 | 254 ft | 16 kts | 322° |
| 2026-05-09 19:49 | 68.78067 | 32.75324 | 252 ft | 24 kts | 325° |
| 2026-05-09 19:49 | 68.78213 | 32.75063 | 254 ft | 25 kts | 326° |
| 2026-05-09 19:49 | 68.78310 | 32.75027 | 255 ft | 13 kts | 43° |
| 2026-05-09 19:49 | 68.78361 | 32.75237 | 254 ft | 13 kts | 58° |
| 2026-05-09 19:50 | 68.78412 | 32.75452 | 254 ft | 14 kts | 56° |
| 2026-05-09 19:50 | 68.78450 | 32.75649 | 254 ft | 9 kts | 86° |
| 2026-05-09 19:50 | 68.78419 | 32.75766 | 254 ft | 5 kts | 144° |
| 2026-05-09 19:50 | 68.78415 | 32.75774 | 254 ft | 0 kts | 145° |